sensor_id;sensor_type;location;lat;lon;timestamp;P1;durP1;ratioP1;P2;durP2;ratioP2
52300;SDS011;38528;53.214;6.562;2022-08-30T00:01:19;6.20;;;2.90;;
52300;SDS011;38528;53.214;6.562;2022-08-30T00:03:47;6.38;;;3.03;;
52300;SDS011;38528;53.214;6.562;2022-08-30T00:06:13;8.40;;;2.72;;
52300;SDS011;38528;53.214;6.562;2022-08-30T00:08:40;5.32;;;2.50;;
52300;SDS011;38528;53.214;6.562;2022-08-30T00:11:08;4.63;;;2.42;;
52300;SDS011;38528;53.214;6.562;2022-08-30T00:13:36;7.43;;;3.00;;
52300;SDS011;38528;53.214;6.562;2022-08-30T00:16:03;7.25;;;2.50;;
52300;SDS011;38528;53.214;6.562;2022-08-30T00:18:31;5.95;;;2.80;;
52300;SDS011;38528;53.214;6.562;2022-08-30T00:20:57;4.60;;;2.47;;
52300;SDS011;38528;53.214;6.562;2022-08-30T00:23:23;5.78;;;2.70;;
52300;SDS011;38528;53.214;6.562;2022-08-30T00:25:49;6.07;;;2.90;;
52300;SDS011;38528;53.214;6.562;2022-08-30T00:28:15;9.95;;;2.90;;
52300;SDS011;38528;53.214;6.562;2022-08-30T00:30:41;5.97;;;2.70;;
52300;SDS011;38528;53.214;6.562;2022-08-30T00:33:08;7.93;;;3.00;;
52300;SDS011;38528;53.214;6.562;2022-08-30T00:35:34;6.30;;;2.80;;
52300;SDS011;38528;53.214;6.562;2022-08-30T00:38:00;9.18;;;2.60;;
52300;SDS011;38528;53.214;6.562;2022-08-30T00:40:26;4.90;;;2.60;;
52300;SDS011;38528;53.214;6.562;2022-08-30T00:42:53;6.45;;;2.78;;
52300;SDS011;38528;53.214;6.562;2022-08-30T00:45:25;5.82;;;2.58;;
52300;SDS011;38528;53.214;6.562;2022-08-30T00:47:53;4.22;;;2.63;;
52300;SDS011;38528;53.214;6.562;2022-08-30T00:50:19;6.38;;;2.80;;
52300;SDS011;38528;53.214;6.562;2022-08-30T00:52:49;4.30;;;2.70;;
52300;SDS011;38528;53.214;6.562;2022-08-30T00:55:20;8.93;;;2.72;;
52300;SDS011;38528;53.214;6.562;2022-08-30T00:57:46;6.15;;;3.00;;
52300;SDS011;38528;53.214;6.562;2022-08-30T01:00:15;5.65;;;2.80;;
52300;SDS011;38528;53.214;6.562;2022-08-30T01:02:41;7.35;;;2.72;;
52300;SDS011;38528;53.214;6.562;2022-08-30T01:05:07;5.95;;;2.53;;
52300;SDS011;38528;53.214;6.562;2022-08-30T01:07:36;5.45;;;2.78;;
52300;SDS011;38528;53.214;6.562;2022-08-30T01:10:02;8.43;;;2.80;;
52300;SDS011;38528;53.214;6.562;2022-08-30T01:12:29;7.30;;;2.72;;
52300;SDS011;38528;53.214;6.562;2022-08-30T01:14:56;9.38;;;2.80;;
52300;SDS011;38528;53.214;6.562;2022-08-30T01:17:22;8.93;;;3.03;;
52300;SDS011;38528;53.214;6.562;2022-08-30T01:19:52;4.93;;;3.03;;
52300;SDS011;38528;53.214;6.562;2022-08-30T01:25:13;4.93;;;2.65;;
52300;SDS011;38528;53.214;6.562;2022-08-30T01:27:43;5.90;;;2.97;;
52300;SDS011;38528;53.214;6.562;2022-08-30T01:30:13;7.55;;;3.20;;
52300;SDS011;38528;53.214;6.562;2022-08-30T01:32:40;8.25;;;2.75;;
52300;SDS011;38528;53.214;6.562;2022-08-30T01:35:08;5.63;;;2.90;;
52300;SDS011;38528;53.214;6.562;2022-08-30T01:37:39;4.93;;;2.67;;
52300;SDS011;38528;53.214;6.562;2022-08-30T01:40:06;8.05;;;3.10;;
52300;SDS011;38528;53.214;6.562;2022-08-30T01:42:33;4.70;;;2.83;;
52300;SDS011;38528;53.214;6.562;2022-08-30T01:44:59;8.00;;;3.10;;
52300;SDS011;38528;53.214;6.562;2022-08-30T01:47:24;6.22;;;3.25;;
52300;SDS011;38528;53.214;6.562;2022-08-30T01:49:51;6.53;;;3.33;;
52300;SDS011;38528;53.214;6.562;2022-08-30T01:52:17;7.60;;;3.30;;
52300;SDS011;38528;53.214;6.562;2022-08-30T01:54:43;5.90;;;3.17;;
52300;SDS011;38528;53.214;6.562;2022-08-30T01:57:11;5.60;;;3.40;;
52300;SDS011;38528;53.214;6.562;2022-08-30T01:59:40;7.18;;;3.67;;
52300;SDS011;38528;53.214;6.562;2022-08-30T02:02:08;5.63;;;3.33;;
52300;SDS011;38528;53.214;6.562;2022-08-30T02:04:34;7.68;;;3.58;;
52300;SDS011;38528;53.214;6.562;2022-08-30T02:07:01;6.30;;;3.30;;
52300;SDS011;38528;53.214;6.562;2022-08-30T02:09:27;7.40;;;3.72;;
52300;SDS011;38528;53.214;6.562;2022-08-30T02:11:53;6.93;;;3.70;;
52300;SDS011;38528;53.214;6.562;2022-08-30T02:14:19;5.80;;;3.03;;
52300;SDS011;38528;53.214;6.562;2022-08-30T02:16:45;7.13;;;3.58;;
52300;SDS011;38528;53.214;6.562;2022-08-30T02:19:12;7.60;;;4.03;;
52300;SDS011;38528;53.214;6.562;2022-08-30T02:21:38;6.43;;;3.70;;
52300;SDS011;38528;53.214;6.562;2022-08-30T02:24:04;6.40;;;3.80;;
52300;SDS011;38528;53.214;6.562;2022-08-30T02:26:30;7.82;;;3.65;;
52300;SDS011;38528;53.214;6.562;2022-08-30T02:28:56;8.23;;;3.78;;
52300;SDS011;38528;53.214;6.562;2022-08-30T02:31:24;6.80;;;3.58;;
52300;SDS011;38528;53.214;6.562;2022-08-30T02:33:50;6.70;;;3.30;;
52300;SDS011;38528;53.214;6.562;2022-08-30T02:36:17;6.78;;;3.90;;
52300;SDS011;38528;53.214;6.562;2022-08-30T02:38:44;5.65;;;3.60;;
52300;SDS011;38528;53.214;6.562;2022-08-30T02:41:11;7.75;;;3.80;;
52300;SDS011;38528;53.214;6.562;2022-08-30T02:43:36;5.07;;;3.50;;
52300;SDS011;38528;53.214;6.562;2022-08-30T02:46:03;6.75;;;3.55;;
52300;SDS011;38528;53.214;6.562;2022-08-30T02:48:29;8.02;;;3.70;;
52300;SDS011;38528;53.214;6.562;2022-08-30T02:50:54;4.28;;;3.30;;
52300;SDS011;38528;53.214;6.562;2022-08-30T02:53:21;8.80;;;3.60;;
52300;SDS011;38528;53.214;6.562;2022-08-30T02:55:47;6.78;;;3.88;;
52300;SDS011;38528;53.214;6.562;2022-08-30T02:58:13;5.57;;;3.70;;
52300;SDS011;38528;53.214;6.562;2022-08-30T03:00:40;8.30;;;3.90;;
52300;SDS011;38528;53.214;6.562;2022-08-30T03:03:06;8.98;;;4.60;;
52300;SDS011;38528;53.214;6.562;2022-08-30T03:05:32;7.18;;;3.85;;
52300;SDS011;38528;53.214;6.562;2022-08-30T03:07:58;8.52;;;4.35;;
52300;SDS011;38528;53.214;6.562;2022-08-30T03:10:25;8.88;;;4.70;;
52300;SDS011;38528;53.214;6.562;2022-08-30T03:12:54;12.27;;;4.40;;
52300;SDS011;38528;53.214;6.562;2022-08-30T03:15:20;8.43;;;4.90;;
52300;SDS011;38528;53.214;6.562;2022-08-30T03:17:49;6.30;;;4.32;;
52300;SDS011;38528;53.214;6.562;2022-08-30T03:20:17;11.15;;;5.30;;
52300;SDS011;38528;53.214;6.562;2022-08-30T03:22:43;10.15;;;5.13;;
52300;SDS011;38528;53.214;6.562;2022-08-30T03:25:09;10.57;;;5.50;;
52300;SDS011;38528;53.214;6.562;2022-08-30T03:27:35;6.95;;;5.32;;
52300;SDS011;38528;53.214;6.562;2022-08-30T03:30:00;9.10;;;5.68;;
52300;SDS011;38528;53.214;6.562;2022-08-30T03:32:26;11.75;;;6.47;;
52300;SDS011;38528;53.214;6.562;2022-08-30T03:34:52;9.30;;;6.72;;
52300;SDS011;38528;53.214;6.562;2022-08-30T03:37:17;9.73;;;6.72;;
52300;SDS011;38528;53.214;6.562;2022-08-30T03:39:44;11.00;;;6.50;;
52300;SDS011;38528;53.214;6.562;2022-08-30T03:42:10;9.55;;;6.80;;
52300;SDS011;38528;53.214;6.562;2022-08-30T03:44:35;11.35;;;6.88;;
52300;SDS011;38528;53.214;6.562;2022-08-30T03:47:02;11.45;;;6.75;;
52300;SDS011;38528;53.214;6.562;2022-08-30T03:49:29;10.15;;;6.88;;
52300;SDS011;38528;53.214;6.562;2022-08-30T03:51:55;8.93;;;6.57;;
52300;SDS011;38528;53.214;6.562;2022-08-30T03:54:21;12.20;;;6.68;;
52300;SDS011;38528;53.214;6.562;2022-08-30T03:56:47;9.57;;;5.88;;
52300;SDS011;38528;53.214;6.562;2022-08-30T03:59:13;12.20;;;6.13;;
52300;SDS011;38528;53.214;6.562;2022-08-30T04:01:39;8.45;;;5.15;;
52300;SDS011;38528;53.214;6.562;2022-08-30T04:04:06;7.15;;;5.38;;
52300;SDS011;38528;53.214;6.562;2022-08-30T04:06:32;11.00;;;4.72;;
52300;SDS011;38528;53.214;6.562;2022-08-30T04:08:58;6.47;;;4.53;;
52300;SDS011;38528;53.214;6.562;2022-08-30T04:11:24;8.65;;;4.60;;
52300;SDS011;38528;53.214;6.562;2022-08-30T04:13:50;10.93;;;5.03;;
52300;SDS011;38528;53.214;6.562;2022-08-30T04:16:17;9.90;;;4.45;;
52300;SDS011;38528;53.214;6.562;2022-08-30T04:18:44;6.63;;;4.30;;
52300;SDS011;38528;53.214;6.562;2022-08-30T04:21:09;7.00;;;4.07;;
52300;SDS011;38528;53.214;6.562;2022-08-30T04:23:35;9.15;;;4.72;;
52300;SDS011;38528;53.214;6.562;2022-08-30T04:26:00;6.80;;;4.10;;
52300;SDS011;38528;53.214;6.562;2022-08-30T04:28:26;6.40;;;3.60;;
52300;SDS011;38528;53.214;6.562;2022-08-30T04:30:52;7.57;;;3.80;;
52300;SDS011;38528;53.214;6.562;2022-08-30T04:33:17;8.25;;;3.60;;
52300;SDS011;38528;53.214;6.562;2022-08-30T04:35:44;7.28;;;3.22;;
52300;SDS011;38528;53.214;6.562;2022-08-30T04:38:12;10.10;;;3.65;;
52300;SDS011;38528;53.214;6.562;2022-08-30T04:40:42;6.78;;;3.40;;
52300;SDS011;38528;53.214;6.562;2022-08-30T04:43:10;8.10;;;3.42;;
52300;SDS011;38528;53.214;6.562;2022-08-30T04:45:40;7.05;;;3.25;;
52300;SDS011;38528;53.214;6.562;2022-08-30T04:48:06;7.95;;;3.65;;
52300;SDS011;38528;53.214;6.562;2022-08-30T04:50:32;6.78;;;3.22;;
52300;SDS011;38528;53.214;6.562;2022-08-30T04:52:58;8.93;;;3.30;;
52300;SDS011;38528;53.214;6.562;2022-08-30T04:55:24;8.40;;;3.53;;
52300;SDS011;38528;53.214;6.562;2022-08-30T04:57:50;10.18;;;3.67;;
52300;SDS011;38528;53.214;6.562;2022-08-30T05:00:16;6.47;;;3.28;;
52300;SDS011;38528;53.214;6.562;2022-08-30T05:02:44;5.85;;;3.38;;
52300;SDS011;38528;53.214;6.562;2022-08-30T05:05:10;6.32;;;3.13;;
52300;SDS011;38528;53.214;6.562;2022-08-30T05:07:55;7.10;;;3.40;;
52300;SDS011;38528;53.214;6.562;2022-08-30T05:10:21;6.40;;;3.50;;
52300;SDS011;38528;53.214;6.562;2022-08-30T05:12:48;7.50;;;3.63;;
52300;SDS011;38528;53.214;6.562;2022-08-30T05:15:14;7.57;;;3.60;;
52300;SDS011;38528;53.214;6.562;2022-08-30T05:17:40;5.57;;;3.20;;
52300;SDS011;38528;53.214;6.562;2022-08-30T05:20:06;5.82;;;3.25;;
52300;SDS011;38528;53.214;6.562;2022-08-30T05:22:36;6.43;;;3.40;;
52300;SDS011;38528;53.214;6.562;2022-08-30T05:25:04;6.35;;;3.45;;
52300;SDS011;38528;53.214;6.562;2022-08-30T05:27:30;7.05;;;3.10;;
52300;SDS011;38528;53.214;6.562;2022-08-30T05:29:56;4.95;;;3.30;;
52300;SDS011;38528;53.214;6.562;2022-08-30T05:32:21;5.40;;;3.20;;
52300;SDS011;38528;53.214;6.562;2022-08-30T05:34:47;6.25;;;3.25;;
52300;SDS011;38528;53.214;6.562;2022-08-30T05:37:13;7.22;;;3.33;;
52300;SDS011;38528;53.214;6.562;2022-08-30T05:39:38;6.07;;;3.45;;
52300;SDS011;38528;53.214;6.562;2022-08-30T05:42:04;6.35;;;3.70;;
52300;SDS011;38528;53.214;6.562;2022-08-30T05:44:30;6.93;;;3.53;;
52300;SDS011;38528;53.214;6.562;2022-08-30T05:46:55;6.20;;;3.50;;
52300;SDS011;38528;53.214;6.562;2022-08-30T05:49:21;8.32;;;3.45;;
52300;SDS011;38528;53.214;6.562;2022-08-30T05:51:47;6.95;;;3.42;;
52300;SDS011;38528;53.214;6.562;2022-08-30T05:54:14;5.93;;;3.55;;
52300;SDS011;38528;53.214;6.562;2022-08-30T05:56:41;6.82;;;3.75;;
52300;SDS011;38528;53.214;6.562;2022-08-30T05:59:09;7.32;;;3.83;;
52300;SDS011;38528;53.214;6.562;2022-08-30T06:01:36;6.50;;;3.65;;
52300;SDS011;38528;53.214;6.562;2022-08-30T06:04:05;7.32;;;3.50;;
52300;SDS011;38528;53.214;6.562;2022-08-30T06:06:33;5.82;;;3.78;;
52300;SDS011;38528;53.214;6.562;2022-08-30T06:09:00;7.22;;;3.78;;
52300;SDS011;38528;53.214;6.562;2022-08-30T06:11:26;7.13;;;3.45;;
52300;SDS011;38528;53.214;6.562;2022-08-30T06:13:52;5.43;;;3.20;;
52300;SDS011;38528;53.214;6.562;2022-08-30T06:16:19;6.82;;;3.67;;
52300;SDS011;38528;53.214;6.562;2022-08-30T06:18:46;6.57;;;3.25;;
52300;SDS011;38528;53.214;6.562;2022-08-30T06:21:16;6.22;;;3.45;;
52300;SDS011;38528;53.214;6.562;2022-08-30T06:23:49;7.32;;;3.35;;
52300;SDS011;38528;53.214;6.562;2022-08-30T06:26:15;7.05;;;3.50;;
52300;SDS011;38528;53.214;6.562;2022-08-30T06:28:41;8.18;;;3.50;;
52300;SDS011;38528;53.214;6.562;2022-08-30T06:31:07;7.90;;;3.60;;
52300;SDS011;38528;53.214;6.562;2022-08-30T06:33:34;5.70;;;3.40;;
52300;SDS011;38528;53.214;6.562;2022-08-30T06:36:02;5.82;;;3.38;;
52300;SDS011;38528;53.214;6.562;2022-08-30T06:38:29;8.95;;;3.50;;
52300;SDS011;38528;53.214;6.562;2022-08-30T06:40:54;11.32;;;3.42;;
52300;SDS011;38528;53.214;6.562;2022-08-30T06:43:20;6.00;;;3.10;;
52300;SDS011;38528;53.214;6.562;2022-08-30T06:45:46;6.50;;;3.20;;
52300;SDS011;38528;53.214;6.562;2022-08-30T06:48:12;8.48;;;2.97;;
52300;SDS011;38528;53.214;6.562;2022-08-30T06:50:37;6.97;;;2.70;;
52300;SDS011;38528;53.214;6.562;2022-08-30T06:53:05;5.72;;;2.88;;
52300;SDS011;38528;53.214;6.562;2022-08-30T06:55:32;4.60;;;2.40;;
52300;SDS011;38528;53.214;6.562;2022-08-30T06:57:58;4.78;;;2.40;;
52300;SDS011;38528;53.214;6.562;2022-08-30T07:00:25;5.15;;;2.30;;
52300;SDS011;38528;53.214;6.562;2022-08-30T07:02:51;3.85;;;2.20;;
52300;SDS011;38528;53.214;6.562;2022-08-30T07:05:17;4.28;;;2.28;;
52300;SDS011;38528;53.214;6.562;2022-08-30T07:07:46;4.25;;;2.00;;
52300;SDS011;38528;53.214;6.562;2022-08-30T07:10:12;6.78;;;2.33;;
52300;SDS011;38528;53.214;6.562;2022-08-30T07:12:39;4.32;;;1.80;;
52300;SDS011;38528;53.214;6.562;2022-08-30T07:15:05;3.85;;;2.05;;
52300;SDS011;38528;53.214;6.562;2022-08-30T07:17:32;5.63;;;1.80;;
52300;SDS011;38528;53.214;6.562;2022-08-30T07:20:17;3.97;;;1.90;;
52300;SDS011;38528;53.214;6.562;2022-08-30T07:22:44;3.67;;;1.83;;
52300;SDS011;38528;53.214;6.562;2022-08-30T07:25:10;6.78;;;1.90;;
52300;SDS011;38528;53.214;6.562;2022-08-30T07:27:36;3.30;;;1.80;;
52300;SDS011;38528;53.214;6.562;2022-08-30T07:30:02;3.45;;;1.90;;
52300;SDS011;38528;53.214;6.562;2022-08-30T07:32:30;4.25;;;2.17;;
52300;SDS011;38528;53.214;6.562;2022-08-30T07:34:55;5.43;;;2.03;;
52300;SDS011;38528;53.214;6.562;2022-08-30T07:37:21;4.93;;;1.92;;
52300;SDS011;38528;53.214;6.562;2022-08-30T07:39:47;5.28;;;2.10;;
52300;SDS011;38528;53.214;6.562;2022-08-30T07:42:12;8.82;;;2.53;;
52300;SDS011;38528;53.214;6.562;2022-08-30T07:44:38;4.45;;;1.73;;
52300;SDS011;38528;53.214;6.562;2022-08-30T07:47:04;4.88;;;1.70;;
52300;SDS011;38528;53.214;6.562;2022-08-30T07:49:29;6.13;;;1.70;;
52300;SDS011;38528;53.214;6.562;2022-08-30T07:51:55;3.30;;;1.70;;
52300;SDS011;38528;53.214;6.562;2022-08-30T07:54:21;4.43;;;1.73;;
52300;SDS011;38528;53.214;6.562;2022-08-30T07:56:47;4.47;;;1.60;;
52300;SDS011;38528;53.214;6.562;2022-08-30T07:59:12;4.25;;;1.60;;
52300;SDS011;38528;53.214;6.562;2022-08-30T08:01:38;3.70;;;1.42;;
52300;SDS011;38528;53.214;6.562;2022-08-30T08:04:04;4.43;;;1.70;;
52300;SDS011;38528;53.214;6.562;2022-08-30T08:06:30;6.55;;;1.80;;
52300;SDS011;38528;53.214;6.562;2022-08-30T08:08:56;3.50;;;1.73;;
52300;SDS011;38528;53.214;6.562;2022-08-30T08:11:26;2.97;;;1.60;;
52300;SDS011;38528;53.214;6.562;2022-08-30T08:13:52;3.28;;;1.70;;
52300;SDS011;38528;53.214;6.562;2022-08-30T08:16:18;3.72;;;1.50;;
52300;SDS011;38528;53.214;6.562;2022-08-30T08:18:48;8.52;;;1.98;;
52300;SDS011;38528;53.214;6.562;2022-08-30T08:21:14;2.22;;;1.48;;
52300;SDS011;38528;53.214;6.562;2022-08-30T08:23:40;6.32;;;1.90;;
52300;SDS011;38528;53.214;6.562;2022-08-30T08:26:06;4.45;;;1.73;;
52300;SDS011;38528;53.214;6.562;2022-08-30T08:28:32;3.88;;;1.58;;
52300;SDS011;38528;53.214;6.562;2022-08-30T08:30:57;4.38;;;1.60;;
52300;SDS011;38528;53.214;6.562;2022-08-30T08:33:23;5.78;;;1.85;;
52300;SDS011;38528;53.214;6.562;2022-08-30T08:35:49;4.22;;;1.73;;
52300;SDS011;38528;53.214;6.562;2022-08-30T08:38:14;4.72;;;1.60;;
52300;SDS011;38528;53.214;6.562;2022-08-30T08:43:15;6.95;;;1.92;;
52300;SDS011;38528;53.214;6.562;2022-08-30T08:48:30;4.53;;;2.13;;
52300;SDS011;38528;53.214;6.562;2022-08-30T08:50:59;4.22;;;1.70;;
52300;SDS011;38528;53.214;6.562;2022-08-30T08:53:47;3.78;;;1.50;;
52300;SDS011;38528;53.214;6.562;2022-08-30T08:56:20;4.22;;;1.63;;
52300;SDS011;38528;53.214;6.562;2022-08-30T08:58:56;3.75;;;1.60;;
52300;SDS011;38528;53.214;6.562;2022-08-30T09:01:31;3.88;;;1.48;;
52300;SDS011;38528;53.214;6.562;2022-08-30T09:03:57;4.03;;;1.42;;
52300;SDS011;38528;53.214;6.562;2022-08-30T09:08:55;5.93;;;1.80;;
52300;SDS011;38528;53.214;6.562;2022-08-30T09:11:23;4.90;;;1.70;;
52300;SDS011;38528;53.214;6.562;2022-08-30T09:13:51;3.72;;;1.60;;
52300;SDS011;38528;53.214;6.562;2022-08-30T09:19:26;3.80;;;1.60;;
52300;SDS011;38528;53.214;6.562;2022-08-30T09:21:59;4.18;;;1.70;;
52300;SDS011;38528;53.214;6.562;2022-08-30T09:24:35;3.03;;;1.60;;
52300;SDS011;38528;53.214;6.562;2022-08-30T09:27:13;3.58;;;1.50;;
52300;SDS011;38528;53.214;6.562;2022-08-30T09:29:51;3.17;;;1.60;;
52300;SDS011;38528;53.214;6.562;2022-08-30T09:32:22;4.47;;;1.70;;
52300;SDS011;38528;53.214;6.562;2022-08-30T09:34:56;6.22;;;1.80;;
52300;SDS011;38528;53.214;6.562;2022-08-30T09:37:45;3.38;;;1.60;;
52300;SDS011;38528;53.214;6.562;2022-08-30T09:40:23;5.13;;;1.60;;
52300;SDS011;38528;53.214;6.562;2022-08-30T09:43:03;5.05;;;1.63;;
52300;SDS011;38528;53.214;6.562;2022-08-30T09:45:45;6.00;;;1.70;;
52300;SDS011;38528;53.214;6.562;2022-08-30T09:48:26;6.43;;;1.67;;
52300;SDS011;38528;53.214;6.562;2022-08-30T09:53:47;2.72;;;1.50;;
52300;SDS011;38528;53.214;6.562;2022-08-30T09:59:20;6.85;;;1.70;;
52300;SDS011;38528;53.214;6.562;2022-08-30T10:02:18;3.25;;;1.60;;
52300;SDS011;38528;53.214;6.562;2022-08-30T10:05:04;3.30;;;1.58;;
52300;SDS011;38528;53.214;6.562;2022-08-30T10:07:33;2.92;;;1.42;;
52300;SDS011;38528;53.214;6.562;2022-08-30T10:12:52;3.45;;;1.30;;
52300;SDS011;38528;53.214;6.562;2022-08-30T10:20:32;3.40;;;1.40;;
52300;SDS011;38528;53.214;6.562;2022-08-30T10:23:06;5.15;;;1.45;;
52300;SDS011;38528;53.214;6.562;2022-08-30T10:25:44;4.55;;;1.63;;
52300;SDS011;38528;53.214;6.562;2022-08-30T10:28:32;3.83;;;1.60;;
52300;SDS011;38528;53.214;6.562;2022-08-30T10:31:08;2.42;;;1.52;;
52300;SDS011;38528;53.214;6.562;2022-08-30T10:33:41;2.30;;;1.50;;
52300;SDS011;38528;53.214;6.562;2022-08-30T10:36:12;4.18;;;1.40;;
52300;SDS011;38528;53.214;6.562;2022-08-30T10:38:39;3.13;;;1.75;;
52300;SDS011;38528;53.214;6.562;2022-08-30T10:49:00;4.30;;;1.58;;
52300;SDS011;38528;53.214;6.562;2022-08-30T10:51:34;6.25;;;1.50;;
52300;SDS011;38528;53.214;6.562;2022-08-30T10:57:15;2.67;;;1.40;;
52300;SDS011;38528;53.214;6.562;2022-08-30T10:59:43;2.53;;;1.30;;
52300;SDS011;38528;53.214;6.562;2022-08-30T11:02:34;3.33;;;1.40;;
52300;SDS011;38528;53.214;6.562;2022-08-30T11:13:22;3.05;;;1.30;;
52300;SDS011;38528;53.214;6.562;2022-08-30T11:15:55;3.08;;;1.30;;
52300;SDS011;38528;53.214;6.562;2022-08-30T11:18:52;3.05;;;1.35;;
52300;SDS011;38528;53.214;6.562;2022-08-30T11:21:30;4.55;;;1.42;;
52300;SDS011;38528;53.214;6.562;2022-08-30T11:34:56;4.47;;;1.70;;
52300;SDS011;38528;53.214;6.562;2022-08-30T11:37:37;2.63;;;1.45;;
52300;SDS011;38528;53.214;6.562;2022-08-30T11:42:46;4.93;;;1.50;;
52300;SDS011;38528;53.214;6.562;2022-08-30T11:48:06;2.88;;;1.30;;
52300;SDS011;38528;53.214;6.562;2022-08-30T11:51:17;2.20;;;1.23;;
52300;SDS011;38528;53.214;6.562;2022-08-30T12:00:05;2.80;;;1.50;;
52300;SDS011;38528;53.214;6.562;2022-08-30T12:08:00;3.30;;;1.30;;
52300;SDS011;38528;53.214;6.562;2022-08-30T12:10:44;2.85;;;1.50;;
52300;SDS011;38528;53.214;6.562;2022-08-30T12:15:59;4.10;;;1.38;;
52300;SDS011;38528;53.214;6.562;2022-08-30T12:18:45;3.60;;;1.40;;
52300;SDS011;38528;53.214;6.562;2022-08-30T12:23:53;5.18;;;1.30;;
52300;SDS011;38528;53.214;6.562;2022-08-30T12:28:51;3.10;;;1.30;;
52300;SDS011;38528;53.214;6.562;2022-08-30T12:31:29;6.93;;;1.20;;
52300;SDS011;38528;53.214;6.562;2022-08-30T12:33:56;3.72;;;1.30;;
52300;SDS011;38528;53.214;6.562;2022-08-30T12:39:14;3.72;;;1.20;;
52300;SDS011;38528;53.214;6.562;2022-08-30T12:41:43;1.75;;;1.10;;
52300;SDS011;38528;53.214;6.562;2022-08-30T12:44:14;3.47;;;1.10;;
52300;SDS011;38528;53.214;6.562;2022-08-30T12:46:44;2.55;;;1.15;;
52300;SDS011;38528;53.214;6.562;2022-08-30T12:49:14;3.83;;;1.48;;
52300;SDS011;38528;53.214;6.562;2022-08-30T12:51:42;3.42;;;1.40;;
52300;SDS011;38528;53.214;6.562;2022-08-30T12:57:01;4.38;;;1.48;;
52300;SDS011;38528;53.214;6.562;2022-08-30T12:59:38;3.53;;;1.60;;
52300;SDS011;38528;53.214;6.562;2022-08-30T13:02:11;6.13;;;1.48;;
52300;SDS011;38528;53.214;6.562;2022-08-30T13:04:37;3.20;;;1.50;;
52300;SDS011;38528;53.214;6.562;2022-08-30T13:07:03;9.05;;;1.52;;
52300;SDS011;38528;53.214;6.562;2022-08-30T13:09:33;3.95;;;1.40;;
52300;SDS011;38528;53.214;6.562;2022-08-30T13:12:06;3.63;;;1.40;;
52300;SDS011;38528;53.214;6.562;2022-08-30T13:14:46;3.15;;;1.33;;
52300;SDS011;38528;53.214;6.562;2022-08-30T13:23:02;2.38;;;1.38;;
52300;SDS011;38528;53.214;6.562;2022-08-30T13:25:33;2.97;;;1.52;;
52300;SDS011;38528;53.214;6.562;2022-08-30T13:28:00;3.55;;;1.38;;
52300;SDS011;38528;53.214;6.562;2022-08-30T13:30:27;3.45;;;1.23;;
52300;SDS011;38528;53.214;6.562;2022-08-30T13:32:54;2.55;;;1.45;;
52300;SDS011;38528;53.214;6.562;2022-08-30T13:35:20;3.67;;;1.30;;
52300;SDS011;38528;53.214;6.562;2022-08-30T13:37:46;2.20;;;1.40;;
52300;SDS011;38528;53.214;6.562;2022-08-30T13:40:12;5.47;;;1.50;;
52300;SDS011;38528;53.214;6.562;2022-08-30T13:42:39;4.53;;;1.55;;
52300;SDS011;38528;53.214;6.562;2022-08-30T13:45:07;3.03;;;1.45;;
52300;SDS011;38528;53.214;6.562;2022-08-30T13:47:33;2.72;;;1.40;;
52300;SDS011;38528;53.214;6.562;2022-08-30T13:49:59;3.90;;;1.40;;
52300;SDS011;38528;53.214;6.562;2022-08-30T13:52:25;2.50;;;1.27;;
52300;SDS011;38528;53.214;6.562;2022-08-30T13:54:52;1.88;;;1.35;;
52300;SDS011;38528;53.214;6.562;2022-08-30T13:57:20;3.65;;;1.60;;
52300;SDS011;38528;53.214;6.562;2022-08-30T13:59:48;2.15;;;1.40;;
52300;SDS011;38528;53.214;6.562;2022-08-30T14:02:13;3.63;;;1.55;;
52300;SDS011;38528;53.214;6.562;2022-08-30T14:04:39;3.53;;;1.60;;
52300;SDS011;38528;53.214;6.562;2022-08-30T14:07:05;3.60;;;1.50;;
52300;SDS011;38528;53.214;6.562;2022-08-30T14:09:31;5.70;;;1.52;;
52300;SDS011;38528;53.214;6.562;2022-08-30T14:11:56;3.35;;;1.65;;
52300;SDS011;38528;53.214;6.562;2022-08-30T14:14:25;2.70;;;1.50;;
52300;SDS011;38528;53.214;6.562;2022-08-30T14:16:51;4.38;;;1.60;;
52300;SDS011;38528;53.214;6.562;2022-08-30T14:19:17;3.17;;;1.58;;
52300;SDS011;38528;53.214;6.562;2022-08-30T14:21:43;6.45;;;1.80;;
52300;SDS011;38528;53.214;6.562;2022-08-30T14:24:10;3.63;;;1.50;;
52300;SDS011;38528;53.214;6.562;2022-08-30T14:26:41;2.72;;;1.50;;
52300;SDS011;38528;53.214;6.562;2022-08-30T14:29:10;3.20;;;1.52;;
52300;SDS011;38528;53.214;6.562;2022-08-30T14:31:38;3.30;;;1.40;;
52300;SDS011;38528;53.214;6.562;2022-08-30T14:34:05;2.88;;;1.40;;
52300;SDS011;38528;53.214;6.562;2022-08-30T14:36:32;2.00;;;1.30;;
52300;SDS011;38528;53.214;6.562;2022-08-30T14:39:00;5.18;;;1.40;;
52300;SDS011;38528;53.214;6.562;2022-08-30T14:41:26;2.40;;;1.10;;
52300;SDS011;38528;53.214;6.562;2022-08-30T14:43:51;5.13;;;1.50;;
52300;SDS011;38528;53.214;6.562;2022-08-30T14:46:17;2.53;;;1.45;;
52300;SDS011;38528;53.214;6.562;2022-08-30T14:48:43;4.13;;;1.58;;
52300;SDS011;38528;53.214;6.562;2022-08-30T14:51:12;2.25;;;1.48;;
52300;SDS011;38528;53.214;6.562;2022-08-30T14:53:43;2.93;;;1.50;;
52300;SDS011;38528;53.214;6.562;2022-08-30T14:56:10;2.35;;;1.48;;
52300;SDS011;38528;53.214;6.562;2022-08-30T14:58:41;3.90;;;1.35;;
52300;SDS011;38528;53.214;6.562;2022-08-30T15:01:08;4.40;;;1.58;;
52300;SDS011;38528;53.214;6.562;2022-08-30T15:03:35;3.50;;;1.50;;
52300;SDS011;38528;53.214;6.562;2022-08-30T15:06:02;3.38;;;1.48;;
52300;SDS011;38528;53.214;6.562;2022-08-30T15:08:28;2.55;;;1.40;;
52300;SDS011;38528;53.214;6.562;2022-08-30T15:10:53;2.97;;;1.63;;
52300;SDS011;38528;53.214;6.562;2022-08-30T15:13:19;4.82;;;1.80;;
52300;SDS011;38528;53.214;6.562;2022-08-30T15:15:45;5.30;;;1.60;;
52300;SDS011;38528;53.214;6.562;2022-08-30T15:18:11;4.72;;;1.70;;
52300;SDS011;38528;53.214;6.562;2022-08-30T15:20:38;4.88;;;1.67;;
52300;SDS011;38528;53.214;6.562;2022-08-30T15:23:12;4.10;;;1.40;;
52300;SDS011;38528;53.214;6.562;2022-08-30T15:25:38;3.90;;;1.80;;
52300;SDS011;38528;53.214;6.562;2022-08-30T15:28:04;4.47;;;1.88;;
52300;SDS011;38528;53.214;6.562;2022-08-30T15:30:30;4.20;;;1.70;;
52300;SDS011;38528;53.214;6.562;2022-08-30T15:32:55;5.45;;;1.88;;
52300;SDS011;38528;53.214;6.562;2022-08-30T15:35:21;4.43;;;1.60;;
52300;SDS011;38528;53.214;6.562;2022-08-30T15:37:46;3.08;;;1.60;;
52300;SDS011;38528;53.214;6.562;2022-08-30T15:40:12;5.35;;;1.52;;
52300;SDS011;38528;53.214;6.562;2022-08-30T15:42:38;4.18;;;1.52;;
52300;SDS011;38528;53.214;6.562;2022-08-30T15:45:04;4.28;;;1.60;;
52300;SDS011;38528;53.214;6.562;2022-08-30T15:47:30;2.85;;;1.70;;
52300;SDS011;38528;53.214;6.562;2022-08-30T15:50:00;3.63;;;1.70;;
52300;SDS011;38528;53.214;6.562;2022-08-30T15:52:27;3.17;;;1.73;;
52300;SDS011;38528;53.214;6.562;2022-08-30T15:54:54;3.42;;;1.70;;
52300;SDS011;38528;53.214;6.562;2022-08-30T15:57:20;3.97;;;1.80;;
52300;SDS011;38528;53.214;6.562;2022-08-30T15:59:46;9.95;;;2.67;;
52300;SDS011;38528;53.214;6.562;2022-08-30T16:02:11;9.63;;;4.93;;
52300;SDS011;38528;53.214;6.562;2022-08-30T16:04:37;14.63;;;5.90;;
52300;SDS011;38528;53.214;6.562;2022-08-30T16:07:03;6.13;;;2.78;;
52300;SDS011;38528;53.214;6.562;2022-08-30T16:09:30;13.20;;;3.95;;
52300;SDS011;38528;53.214;6.562;2022-08-30T16:11:56;14.25;;;4.80;;
52300;SDS011;38528;53.214;6.562;2022-08-30T16:14:23;7.40;;;2.70;;
52300;SDS011;38528;53.214;6.562;2022-08-30T16:16:49;12.85;;;3.78;;
52300;SDS011;38528;53.214;6.562;2022-08-30T16:19:15;3.67;;;1.90;;
52300;SDS011;38528;53.214;6.562;2022-08-30T16:21:40;6.50;;;2.17;;
52300;SDS011;38528;53.214;6.562;2022-08-30T16:24:08;4.35;;;2.00;;
52300;SDS011;38528;53.214;6.562;2022-08-30T16:26:35;5.40;;;2.47;;
52300;SDS011;38528;53.214;6.562;2022-08-30T16:29:02;5.20;;;2.38;;